Time;durP1;ratioP1;P1;durP2;ratioP2;P2;SDS_P1;SDS_P2;PMS_P1;PMS_P2;Temp;Humidity;BMP_temperature;BMP_pressure;BME280_temperature;BME280_humidity;BME280_pressure;Samples;Min_cycle;Max_cycle;Signal;HPM_P1;HPM_P2
2024/01/26 00:01:08;;;;;;;21.17;8.57;;;6.00;1.00;;;;;;5075718;28;20195;-76
2024/01/26 00:03:34;;;;;;;21.43;7.50;;;6.10;1.00;;;;;;5074658;28;20190;-71
2024/01/26 00:06:00;;;;;;;19.53;8.27;;;6.10;1.00;;;;;;5074566;28;20497;-70
2024/01/26 00:08:25;;;;;;;36.87;10.27;;;6.10;1.00;;;;;;5057550;28;20466;-73
2024/01/26 00:10:51;;;;;;;33.33;10.03;;;6.20;1.00;;;;;;5075517;28;20499;-70
2024/01/26 00:13:17;;;;;;;17.13;8.87;;;6.20;1.00;;;;;;5056649;28;20189;-70
2024/01/26 00:15:46;;;;;;;29.27;8.90;;;6.20;1.00;;;;;;5075314;28;20562;-71
2024/01/26 00:18:11;;;;;;;25.00;9.53;;;6.10;1.00;;;;;;5075502;28;20162;-70
2024/01/26 00:20:37;;;;;;;35.43;8.87;;;6.10;1.00;;;;;;5057374;28;20929;-75
2024/01/26 00:23:03;;;;;;;21.30;8.53;;;6.10;1.00;;;;;;5074323;28;20281;-75
2024/01/26 00:25:29;;;;;;;20.57;9.20;;;6.10;1.00;;;;;;5075138;28;20425;-76
2024/01/26 00:27:55;;;;;;;26.20;9.80;;;6.10;1.00;;;;;;5075176;28;20204;-70
2024/01/26 00:30:21;;;;;;;22.03;10.40;;;6.20;1.00;;;;;;5075139;28;20162;-76
2024/01/26 00:32:46;;;;;;;19.07;9.50;;;6.20;1.00;;;;;;5074844;28;20166;-73
2024/01/26 00:35:12;;;;;;;32.73;9.17;;;6.20;1.00;;;;;;5074318;28;21029;-75
2024/01/26 00:37:38;;;;;;;24.17;9.30;;;6.20;1.00;;;;;;5074973;28;20184;-70
2024/01/26 00:40:04;;;;;;;15.97;8.60;;;6.20;1.00;;;;;;5074909;28;20569;-76
2024/01/26 00:42:30;;;;;;;21.13;9.20;;;6.20;1.00;;;;;;5074914;28;20200;-70
2024/01/26 00:44:55;;;;;;;29.83;10.20;;;6.20;1.00;;;;;;5055954;28;20459;-76
2024/01/26 00:47:21;;;;;;;31.93;10.00;;;6.20;1.00;;;;;;5074887;28;20519;-70
2024/01/26 00:49:47;;;;;;;25.67;10.30;;;6.40;1.00;;;;;;5056997;28;20174;-73
2024/01/26 00:52:13;;;;;;;29.80;8.30;;;6.30;1.00;;;;;;5057016;28;20170;-75
2024/01/26 00:54:38;;;;;;;18.17;8.80;;;6.30;1.00;;;;;;5073656;28;20186;-70
2024/01/26 00:57:04;;;;;;;18.37;8.83;;;6.30;1.00;;;;;;5056932;28;20261;-73
2024/01/26 00:59:30;;;;;;;22.57;8.50;;;6.30;1.00;;;;;;5074575;28;20190;-70
2024/01/26 01:01:57;;;;;;;19.53;8.30;;;6.30;1.00;;;;;;5056769;28;20452;-75
2024/01/26 01:04:24;;;;;;;21.20;8.43;;;6.30;1.00;;;;;;5073305;28;20452;-75
2024/01/26 01:06:52;;;;;;;34.10;11.17;;;6.30;1.00;;;;;;5074334;28;20435;-75
2024/01/26 01:09:18;;;;;;;19.83;10.57;;;6.30;1.00;;;;;;5074448;28;20415;-76
2024/01/26 01:11:44;;;;;;;20.30;9.30;;;6.20;1.00;;;;;;5074421;28;20404;-70
2024/01/26 01:14:09;;;;;;;17.77;9.13;;;6.30;1.00;;;;;;5073245;28;20197;-75
2024/01/26 01:16:35;;;;;;;24.60;9.23;;;6.30;1.00;;;;;;5074215;28;20685;-69
2024/01/26 01:19:01;;;;;;;22.57;9.27;;;6.30;1.00;;;;;;5074107;28;20174;-76
2024/01/26 01:21:26;;;;;;;17.43;8.47;;;6.30;1.00;;;;;;5074172;28;20178;-76
2024/01/26 01:23:52;;;;;;;26.07;10.87;;;6.40;1.00;;;;;;5073156;28;20582;-70
2024/01/26 01:26:18;;;;;;;28.80;10.10;;;6.40;1.00;;;;;;5073932;28;20656;-75
2024/01/26 01:28:44;;;;;;;23.57;9.70;;;6.40;1.00;;;;;;5074001;28;20172;-76
2024/01/26 01:31:10;;;;;;;27.97;10.60;;;6.40;1.00;;;;;;5056027;28;20170;-76
2024/01/26 01:33:36;;;;;;;25.50;9.43;;;6.40;1.00;;;;;;5073013;28;20171;-75
2024/01/26 01:36:02;;;;;;;26.53;9.00;;;6.40;1.00;;;;;;5056102;28;20433;-70
2024/01/26 01:38:28;;;;;;;31.67;10.20;;;6.40;1.00;;;;;;5056045;28;20601;-70
2024/01/26 01:40:53;;;;;;;19.77;8.77;;;6.40;1.00;;;;;;5073885;28;20707;-70
2024/01/26 01:43:19;;;;;;;27.00;9.67;;;6.40;1.00;;;;;;5072842;28;20617;-69
2024/01/26 01:45:45;;;;;;;21.07;10.47;;;6.40;1.00;;;;;;5073648;28;20201;-76
2024/01/26 01:48:11;;;;;;;35.50;10.17;;;6.40;1.00;;;;;;5073592;28;20245;-76
2024/01/26 01:50:37;;;;;;;41.77;10.40;;;6.40;1.00;;;;;;5073529;28;20174;-75
2024/01/26 01:53:04;;;;;;;26.67;11.43;;;6.40;1.00;;;;;;5072736;28;20408;-70
2024/01/26 01:55:30;;;;;;;25.33;11.40;;;6.40;1.00;;;;;;5073497;28;20399;-73
2024/01/26 01:57:57;;;;;;;24.53;9.50;;;6.50;1.00;;;;;;5073557;28;20378;-70
2024/01/26 02:00:24;;;;;;;22.37;11.00;;;6.50;1.00;;;;;;5073544;28;20271;-74
2024/01/26 02:02:52;;;;;;;31.60;12.27;;;6.50;1.00;;;;;;5072490;28;20432;-75
2024/01/26 02:05:18;;;;;;;39.67;13.00;;;6.50;1.00;;;;;;5073143;28;20503;-76
2024/01/26 02:07:50;;;;;;;22.23;10.47;;;6.50;1.00;;;;;;5055529;28;20408;-69
2024/01/26 02:10:16;;;;;;;35.83;11.00;;;6.50;1.00;;;;;;5073373;28;20495;-70
2024/01/26 02:12:43;;;;;;;30.30;11.67;;;6.50;1.00;;;;;;5055115;28;20972;-75
2024/01/26 02:15:08;;;;;;;34.63;12.10;;;6.50;1.00;;;;;;5072496;28;20420;-69
2024/01/26 02:17:36;;;;;;;36.00;10.60;;;6.50;1.00;;;;;;5073298;28;20885;-70
2024/01/26 02:20:05;;;;;;;35.00;13.17;;;6.60;1.00;;;;;;5073311;28;20412;-70
2024/01/26 02:22:32;;;;;;;41.17;11.83;;;6.60;1.00;;;;;;5055452;28;20901;-70
2024/01/26 02:24:57;;;;;;;30.53;10.97;;;6.60;1.00;;;;;;5054096;28;20463;-75
2024/01/26 02:27:23;;;;;;;35.80;12.70;;;6.60;1.00;;;;;;5073246;28;20462;-76
2024/01/26 02:29:49;;;;;;;24.93;12.60;;;6.60;1.00;;;;;;5076344;28;20523;-69
2024/01/26 02:32:15;;;;;;;22.10;10.53;;;6.60;1.00;;;;;;5079848;28;20453;-76
2024/01/26 02:34:42;;;;;;;43.63;12.50;;;6.60;1.00;;;;;;5078727;28;20193;-70
2024/01/26 02:37:10;;;;;;;29.93;13.07;;;6.60;1.00;;;;;;5079724;28;20900;-70
2024/01/26 02:39:36;;;;;;;33.20;11.77;;;6.60;1.00;;;;;;5079824;28;20396;-76
2024/01/26 02:42:02;;;;;;;31.10;12.90;;;6.70;1.00;;;;;;5079721;28;20405;-76
2024/01/26 02:44:32;;;;;;;42.33;13.43;;;6.60;1.00;;;;;;5078578;28;20883;-75
2024/01/26 02:46:57;;;;;;;24.47;13.43;;;6.60;1.00;;;;;;5079559;28;20440;-70
2024/01/26 02:49:23;;;;;;;26.83;12.80;;;6.60;1.00;;;;;;5079750;28;20805;-76
2024/01/26 02:51:48;;;;;;;26.70;12.63;;;6.60;1.00;;;;;;5079679;28;20170;-76
2024/01/26 02:54:14;;;;;;;35.37;13.43;;;6.60;1.00;;;;;;5078717;28;20196;-76
2024/01/26 02:56:40;;;;;;;38.43;13.87;;;6.60;1.00;;;;;;5079616;28;20215;-75
2024/01/26 02:59:05;;;;;;;29.67;13.10;;;6.60;1.00;;;;;;5079442;28;20178;-69
2024/01/26 03:01:31;;;;;;;33.93;14.60;;;6.60;1.00;;;;;;5079589;28;20177;-71
2024/01/26 03:03:59;;;;;;;55.23;14.60;;;6.60;1.00;;;;;;5078574;28;20209;-76
2024/01/26 03:06:24;;;;;;;33.30;14.53;;;6.60;1.00;;;;;;5079580;28;20186;-70
2024/01/26 03:08:50;;;;;;;35.70;15.80;;;6.60;1.00;;;;;;5079515;28;20454;-70
2024/01/26 03:11:16;;;;;;;28.73;15.67;;;6.60;2.30;;;;;;5079415;28;20174;-70
2024/01/26 03:13:41;;;;;;;42.90;13.87;;;6.60;6.60;;;;;;5078583;28;20655;-70
2024/01/26 03:16:07;;;;;;;35.97;15.23;;;6.50;13.40;;;;;;5079342;28;20193;-69
2024/01/26 03:18:33;;;;;;;36.73;16.97;;;6.60;25.60;;;;;;5061679;28;20182;-69
2024/01/26 03:21:00;;;;;;;31.50;15.50;;;6.60;29.80;;;;;;5079419;28;20493;-70
2024/01/26 03:23:25;;;;;;;38.07;16.43;;;6.60;30.60;;;;;;5060631;28;20217;-70
2024/01/26 03:25:51;;;;;;;27.97;14.07;;;6.50;48.20;;;;;;5079292;28;20416;-75
2024/01/26 03:28:17;;;;;;;44.17;15.37;;;6.50;65.20;;;;;;5061337;28;20272;-76
2024/01/26 03:30:43;;;;;;;56.80;17.50;;;6.50;78.50;;;;;;5079422;28;20184;-70
2024/01/26 03:33:09;;;;;;;42.30;15.83;;;6.50;87.80;;;;;;5078308;28;21074;-76
2024/01/26 03:35:35;;;;;;;29.20;14.33;;;6.60;97.50;;;;;;5079187;28;20464;-70
2024/01/26 03:38:01;;;;;;;52.23;16.83;;;6.60;99.90;;;;;;5079366;28;20177;-76
2024/01/26 03:40:27;;;;;;;35.00;14.67;;;6.60;99.90;;;;;;5078182;28;20474;-76
2024/01/26 03:42:53;;;;;;;39.77;16.20;;;6.60;99.90;;;;;;5074277;28;20413;-70
2024/01/26 03:45:19;;;;;;;36.13;15.83;;;6.60;99.90;;;;;;5075865;28;20435;-70
2024/01/26 03:47:45;;;;;;;52.37;15.97;;;6.60;99.90;;;;;;5075972;28;20498;-75
2024/01/26 03:50:10;;;;;;;37.63;15.80;;;6.60;99.90;;;;;;5075881;28;20170;-70
2024/01/26 03:52:36;;;;;;;36.50;15.33;;;6.60;99.90;;;;;;5075862;28;20175;-70
2024/01/26 03:55:06;;;;;;;36.97;16.43;;;6.60;99.90;;;;;;5074821;28;20673;-70
2024/01/26 03:57:32;;;;;;;35.67;16.33;;;6.60;99.90;;;;;;5075648;28;20495;-70
2024/01/26 03:59:58;;;;;;;37.30;16.87;;;6.60;99.90;;;;;;5075778;28;20578;-70
2024/01/26 04:02:24;;;;;;;37.20;16.77;;;6.60;99.90;;;;;;5075694;28;20462;-70
2024/01/26 04:04:49;;;;;;;53.77;19.10;;;6.60;99.90;;;;;;5074641;28;20202;-75
2024/01/26 04:07:15;;;;;;;44.43;17.40;;;6.50;99.90;;;;;;5075577;28;20186;-70
2024/01/26 04:09:41;;;;;;;54.27;17.30;;;6.50;99.90;;;;;;5057494;28;20205;-70
2024/01/26 04:12:06;;;;;;;41.07;17.13;;;6.60;99.90;;;;;;5075550;28;20177;-76
2024/01/26 04:14:32;;;;;;;42.27;18.27;;;6.50;99.90;;;;;;5074559;28;20212;-75
2024/01/26 04:16:58;;;;;;;59.23;20.07;;;6.50;99.90;;;;;;5075433;28;20177;-76
2024/01/26 04:19:23;;;;;;;39.20;20.00;;;6.50;99.90;;;;;;5075405;28;20654;-76
2024/01/26 04:21:51;;;;;;;49.00;18.47;;;6.50;99.90;;;;;;5075243;28;20557;-69
2024/01/26 04:24:16;;;;;;;50.70;19.40;;;6.50;99.90;;;;;;5056288;28;20267;-70
2024/01/26 04:26:42;;;;;;;50.00;20.63;;;6.50;99.90;;;;;;5075235;28;20381;-70
2024/01/26 04:29:08;;;;;;;51.50;19.10;;;6.50;99.90;;;;;;5075238;28;20641;-76
2024/01/26 04:31:33;;;;;;;61.03;23.07;;;6.50;99.90;;;;;;5075167;28;20551;-75
2024/01/26 04:33:59;;;;;;;56.63;20.40;;;6.50;99.90;;;;;;5056393;28;20189;-76
2024/01/26 04:36:25;;;;;;;49.33;18.43;;;6.50;99.90;;;;;;5075089;28;20170;-70
2024/01/26 04:38:51;;;;;;;54.87;19.67;;;6.50;99.90;;;;;;5074965;28;20642;-76
2024/01/26 04:41:16;;;;;;;58.03;20.43;;;6.50;99.90;;;;;;5074943;28;20231;-70
2024/01/26 04:43:43;;;;;;;48.37;20.03;;;6.50;99.90;;;;;;5073885;28;20243;-76
2024/01/26 04:46:08;;;;;;;67.07;22.20;;;6.50;99.90;;;;;;5074729;28;20182;-76
2024/01/26 04:48:34;;;;;;;38.77;20.07;;;6.50;99.90;;;;;;5074864;28;20442;-70
2024/01/26 04:51:00;;;;;;;52.37;18.90;;;6.50;99.90;;;;;;5056831;28;20512;-71
2024/01/26 04:53:26;;;;;;;48.10;20.03;;;6.60;99.90;;;;;;5073465;28;20646;-76
2024/01/26 04:55:52;;;;;;;60.97;20.70;;;6.60;99.90;;;;;;5074423;28;20198;-70
2024/01/26 04:58:18;;;;;;;55.90;19.87;;;6.60;99.90;;;;;;5074591;28;20249;-75
2024/01/26 05:00:44;;;;;;;53.00;21.17;;;6.60;99.90;;;;;;5074670;28;20479;-70
2024/01/26 05:03:09;;;;;;;49.60;20.30;;;6.60;99.90;;;;;;5073574;28;20198;-76
2024/01/26 05:05:35;;;;;;;45.80;19.00;;;6.60;99.90;;;;;;5074382;28;20554;-70
2024/01/26 05:08:01;;;;;;;57.97;18.83;;;6.60;99.90;;;;;;5074281;28;20173;-76
2024/01/26 05:10:26;;;;;;;62.93;19.80;;;6.60;1.00;;;;;;5074383;28;20162;-76
2024/01/26 05:12:52;;;;;;;49.80;20.20;;;6.60;1.00;;;;;;5055501;28;20166;-70
2024/01/26 05:15:18;;;;;;;56.50;19.03;;;6.60;1.00;;;;;;5074268;28;20190;-70
2024/01/26 05:17:45;;;;;;;49.93;19.60;;;6.60;1.00;;;;;;5056639;28;20568;-70
2024/01/26 05:20:11;;;;;;;42.93;18.40;;;6.60;1.00;;;;;;5074137;28;20154;-75
2024/01/26 05:22:37;;;;;;;62.23;21.33;;;6.60;1.00;;;;;;5074114;28;20889;-75
2024/01/26 05:25:02;;;;;;;49.17;21.77;;;6.60;1.00;;;;;;5073031;28;20550;-70
2024/01/26 05:27:29;;;;;;;39.57;17.70;;;6.60;1.00;;;;;;5074071;28;20203;-70
2024/01/26 05:29:55;;;;;;;51.80;19.60;;;6.60;1.00;;;;;;5074005;28;20190;-76
2024/01/26 05:32:22;;;;;;;41.30;19.20;;;6.70;1.00;;;;;;5073850;28;20393;-70
2024/01/26 05:34:48;;;;;;;39.63;18.27;;;6.60;1.00;;;;;;5072968;28;20758;-70
2024/01/26 05:37:13;;;;;;;45.67;18.73;;;6.60;1.00;;;;;;5073815;28;20405;-76
2024/01/26 05:39:39;;;;;;;40.43;18.70;;;6.70;1.00;;;;;;5056194;28;20958;-75
2024/01/26 05:42:05;;;;;;;53.20;19.30;;;6.70;1.00;;;;;;5073654;28;20166;-75
2024/01/26 05:44:31;;;;;;;46.17;20.23;;;6.70;1.00;;;;;;5054854;28;20210;-70
2024/01/26 05:46:56;;;;;;;40.30;18.47;;;6.70;1.00;;;;;;5073699;28;20239;-70
2024/01/26 05:49:23;;;;;;;39.60;19.90;;;6.70;1.00;;;;;;5055703;28;20174;-70
2024/01/26 05:51:49;;;;;;;50.00;20.07;;;6.70;1.00;;;;;;5073637;28;20158;-76
2024/01/26 05:54:15;;;;;;;43.60;18.63;;;6.70;1.00;;;;;;5072613;28;20764;-72
2024/01/26 05:56:41;;;;;;;39.20;17.57;;;6.80;1.00;;;;;;5055534;28;20178;-75
2024/01/26 05:59:07;;;;;;;47.93;20.53;;;6.80;1.00;;;;;;5073504;28;20171;-72
2024/01/26 06:01:34;;;;;;;46.07;18.30;;;6.80;1.00;;;;;;5073527;28;20401;-76
2024/01/26 06:04:01;;;;;;;50.53;18.07;;;6.80;1.00;;;;;;5071711;28;20444;-70
2024/01/26 06:06:27;;;;;;;38.07;17.47;;;6.80;1.00;;;;;;5055244;28;20443;-70
2024/01/26 06:08:52;;;;;;;50.17;18.73;;;6.80;1.00;;;;;;5055681;28;20413;-74
2024/01/26 06:11:19;;;;;;;38.03;16.80;;;6.90;1.00;;;;;;5073445;28;20888;-76
2024/01/26 06:13:44;;;;;;;46.47;18.77;;;6.90;1.00;;;;;;5072437;28;20174;-71
2024/01/26 06:16:14;;;;;;;37.33;18.60;;;6.90;1.00;;;;;;5055618;28;20409;-76
2024/01/26 06:18:40;;;;;;;36.20;19.27;;;6.90;1.00;;;;;;5073162;28;20173;-70
2024/01/26 06:21:06;;;;;;;40.07;17.97;;;6.90;1.00;;;;;;5073204;28;20404;-70
2024/01/26 06:23:31;;;;;;;44.10;19.03;;;7.00;1.00;;;;;;5072302;28;20531;-76
2024/01/26 06:25:57;;;;;;;44.20;21.30;;;7.00;1.00;;;;;;5073134;28;20182;-76
2024/01/26 06:28:23;;;;;;;44.97;20.00;;;7.00;1.00;;;;;;5073160;28;20166;-76
2024/01/26 06:30:48;;;;;;;43.47;19.57;;;7.00;1.00;;;;;;5073053;28;20166;-70
2024/01/26 06:33:14;;;;;;;57.03;19.50;;;7.10;1.00;;;;;;5072284;28;20623;-76
2024/01/26 06:35:40;;;;;;;38.27;18.37;;;7.10;1.00;;;;;;5072977;28;20247;-70
2024/01/26 06:38:05;;;;;;;40.47;18.87;;;7.10;1.00;;;;;;5073106;28;20166;-74
2024/01/26 06:40:31;;;;;;;32.30;17.70;;;7.20;1.00;;;;;;5055106;28;20231;-76
2024/01/26 06:42:57;;;;;;;44.27;22.53;;;7.10;1.00;;;;;;5072069;28;20178;-70
2024/01/26 06:45:23;;;;;;;41.97;20.23;;;7.20;1.00;;;;;;5073112;28;20190;-70
2024/01/26 06:47:48;;;;;;;41.37;19.97;;;7.20;1.00;;;;;;5073093;28;20166;-75
2024/01/26 06:50:14;;;;;;;42.37;20.50;;;7.20;1.00;;;;;;5072964;28;20168;-77
2024/01/26 06:52:40;;;;;;;42.97;18.27;;;7.20;1.00;;;;;;5072754;28;20220;-75
2024/01/26 06:55:06;;;;;;;47.77;20.90;;;7.30;1.00;;;;;;5072153;28;20197;-70
2024/01/26 06:57:31;;;;;;;61.33;22.00;;;7.30;1.00;;;;;;5072972;28;20182;-70
2024/01/26 06:59:57;;;;;;;52.30;18.97;;;7.30;1.00;;;;;;5072921;28;20178;-70
2024/01/26 07:02:23;;;;;;;48.23;20.40;;;7.30;1.00;;;;;;5054878;28;20185;-70
2024/01/26 07:04:49;;;;;;;45.10;20.83;;;7.30;1.00;;;;;;5071852;28;20209;-71
2024/01/26 07:07:14;;;;;;;46.93;20.00;;;7.20;1.00;;;;;;5072751;28;20598;-71
2024/01/26 07:09:40;;;;;;;43.37;21.70;;;7.30;1.00;;;;;;5072570;28;20393;-76
2024/01/26 07:12:06;;;;;;;42.00;21.20;;;7.30;1.00;;;;;;5072796;28;20194;-70
2024/01/26 07:14:32;;;;;;;47.57;22.50;;;7.30;1.00;;;;;;5071717;28;20273;-70
2024/01/26 07:16:57;;;;;;;39.63;19.30;;;7.40;1.00;;;;;;5057747;28;20408;-76
2024/01/26 07:19:23;;;;;;;44.07;22.03;;;7.40;1.00;;;;;;5076194;28;20583;-73
2024/01/26 07:21:48;;;;;;;40.47;19.20;;;7.40;1.00;;;;;;5076461;28;20171;-77
2024/01/26 07:24:14;;;;;;;61.03;22.43;;;7.40;1.00;;;;;;5075481;28;20242;-69
2024/01/26 07:26:41;;;;;;;49.30;20.40;;;7.50;1.00;;;;;;5076358;28;20167;-69
2024/01/26 07:29:06;;;;;;;45.70;21.20;;;7.40;1.00;;;;;;5076241;28;20628;-70
2024/01/26 07:31:32;;;;;;;41.47;21.03;;;7.50;1.00;;;;;;5058593;28;20407;-77
2024/01/26 07:33:58;;;;;;;41.60;20.13;;;7.50;1.00;;;;;;5075226;28;20175;-76
2024/01/26 07:36:24;;;;;;;44.80;22.73;;;7.50;1.00;;;;;;5076277;28;20245;-77
2024/01/26 07:38:49;;;;;;;54.73;22.70;;;7.60;1.00;;;;;;5076176;28;20162;-77
2024/01/26 07:41:15;;;;;;;50.60;20.97;;;7.60;1.00;;;;;;5076025;28;20199;-77
2024/01/26 07:43:41;;;;;;;42.57;21.43;;;7.60;1.00;;;;;;5075040;28;20218;-76
2024/01/26 07:46:06;;;;;;;40.43;18.37;;;7.60;1.00;;;;;;5057997;28;20190;-69
2024/01/26 07:48:32;;;;;;;42.30;20.33;;;7.70;1.00;;;;;;5075867;28;20494;-69
2024/01/26 07:50:58;;;;;;;39.30;19.13;;;7.70;1.00;;;;;;5076037;28;20209;-70
2024/01/26 07:53:23;;;;;;;36.30;19.83;;;7.70;1.00;;;;;;5074901;28;20171;-72
2024/01/26 07:55:50;;;;;;;48.13;20.60;;;7.80;1.00;;;;;;5058040;28;20202;-76
2024/01/26 07:58:16;;;;;;;32.60;18.33;;;7.80;1.00;;;;;;5075621;28;20164;-75
2024/01/26 08:00:42;;;;;;;43.87;19.40;;;7.80;1.00;;;;;;5075745;28;20402;-72
2024/01/26 08:03:07;;;;;;;31.10;18.53;;;7.80;1.00;;;;;;5074626;28;20657;-70
2024/01/26 08:05:33;;;;;;;37.57;19.30;;;7.80;1.00;;;;;;5075434;28;20205;-75
2024/01/26 08:07:59;;;;;;;39.37;19.60;;;7.80;1.00;;;;;;5075645;28;20514;-69
2024/01/26 08:10:25;;;;;;;37.40;20.17;;;7.80;1.00;;;;;;5075521;28;20169;-75
2024/01/26 08:12:51;;;;;;;38.97;19.53;;;7.80;1.00;;;;;;5074616;28;20190;-69
2024/01/26 08:15:17;;;;;;;37.30;22.00;;;7.80;1.00;;;;;;5075348;28;20188;-75
2024/01/26 08:17:42;;;;;;;45.20;22.20;;;7.90;1.00;;;;;;5075334;28;20404;-70
2024/01/26 08:20:09;;;;;;;34.23;17.90;;;7.90;1.00;;;;;;5075424;28;20750;-70
2024/01/26 08:22:35;;;;;;;36.23;20.20;;;8.00;1.00;;;;;;5075379;28;20250;-70
2024/01/26 08:25:01;;;;;;;41.00;22.13;;;7.90;1.00;;;;;;5074238;28;20430;-72
2024/01/26 08:27:27;;;;;;;49.57;20.77;;;8.00;1.00;;;;;;5074496;28;20396;-71
2024/01/26 08:29:53;;;;;;;38.93;22.00;;;8.00;1.00;;;;;;5075243;28;20578;-76
2024/01/26 08:32:19;;;;;;;48.93;21.57;;;8.10;1.00;;;;;;5075080;28;20394;-75
2024/01/26 08:34:45;;;;;;;38.83;20.63;;;8.10;1.00;;;;;;5074162;28;20827;-69
2024/01/26 08:37:11;;;;;;;45.63;22.27;;;8.10;1.00;;;;;;5057380;28;20660;-69
2024/01/26 08:39:37;;;;;;;38.97;19.73;;;8.10;1.00;;;;;;5057016;28;20441;-69
2024/01/26 08:42:03;;;;;;;43.70;21.70;;;8.10;1.00;;;;;;5074999;28;20440;-75
2024/01/26 08:44:30;;;;;;;34.13;19.00;;;8.10;1.00;;;;;;5073924;28;20456;-74
2024/01/26 08:46:56;;;;;;;39.77;18.53;;;8.10;1.00;;;;;;5074875;28;20765;-75
2024/01/26 08:49:22;;;;;;;37.10;19.07;;;8.10;1.00;;;;;;5074842;28;20402;-70
2024/01/26 08:51:48;;;;;;;37.43;19.20;;;8.10;1.00;;;;;;5074731;28;20749;-75
2024/01/26 08:54:14;;;;;;;25.73;17.13;;;8.20;1.00;;;;;;5073796;28;20312;-68
2024/01/26 08:56:43;;;;;;;36.23;18.77;;;8.20;1.00;;;;;;5074594;28;20174;-71
2024/01/26 08:59:11;;;;;;;31.47;16.13;;;8.20;1.00;;;;;;5074612;28;20634;-74
2024/01/26 09:01:38;;;;;;;29.13;15.60;;;8.20;1.00;;;;;;5074492;28;20877;-68
2024/01/26 09:04:08;;;;;;;25.50;15.63;;;8.30;1.00;;;;;;5073346;28;20429;-70
2024/01/26 09:06:37;;;;;;;29.90;15.83;;;8.30;1.00;;;;;;5056395;28;20460;-68
2024/01/26 09:09:03;;;;;;;28.40;15.73;;;8.30;1.00;;;;;;5074420;28;20406;-68
2024/01/26 09:11:29;;;;;;;26.10;15.30;;;8.40;1.00;;;;;;5074387;28;20852;-67
2024/01/26 09:13:58;;;;;;;24.97;14.63;;;8.40;1.00;;;;;;5073219;28;20414;-70
2024/01/26 09:16:24;;;;;;;20.40;12.23;;;8.40;1.00;;;;;;5074329;28;20411;-71
2024/01/26 09:18:49;;;;;;;32.83;14.27;;;8.50;1.00;;;;;;5074246;28;20467;-72
2024/01/26 09:21:15;;;;;;;23.03;13.13;;;8.50;1.00;;;;;;5074191;28;20175;-68
2024/01/26 09:23:43;;;;;;;20.20;12.80;;;8.50;1.00;;;;;;5073150;28;20199;-72
2024/01/26 09:26:10;;;;;;;25.63;12.60;;;8.60;1.00;;;;;;5073892;28;20229;-68
2024/01/26 09:28:36;;;;;;;21.60;11.90;;;8.60;1.00;;;;;;5039642;28;20994;-68
2024/01/26 09:31:01;;;;;;;18.60;12.23;;;8.60;1.00;;;;;;5073914;28;20459;-74
2024/01/26 09:33:27;;;;;;;16.27;10.00;;;8.70;1.00;;;;;;5072971;28;20373;-70
2024/01/26 09:35:54;;;;;;;18.60;10.60;;;8.70;1.00;;;;;;5073748;28;20184;-72
2024/01/26 09:38:20;;;;;;;16.47;9.40;;;8.70;1.00;;;;;;5073420;28;20307;-72
2024/01/26 09:40:46;;;;;;;14.97;11.13;;;8.70;1.00;;;;;;5073245;28;20408;-69
2024/01/26 09:43:11;;;;;;;16.83;10.87;;;8.80;1.00;;;;;;5072757;28;20176;-69
2024/01/26 09:45:37;;;;;;;15.00;9.83;;;8.80;1.00;;;;;;5055973;28;20424;-72
2024/01/26 09:48:06;;;;;;;19.93;11.07;;;8.80;1.00;;;;;;5073645;28;20145;-73
2024/01/26 09:50:34;;;;;;;14.03;9.10;;;8.90;1.00;;;;;;5073661;28;20628;-69
2024/01/26 09:52:59;;;;;;;13.10;8.90;;;8.90;1.00;;;;;;5073165;28;20434;-69
2024/01/26 09:55:27;;;;;;;13.53;9.43;;;8.90;1.00;;;;;;5055464;28;20409;-70
2024/01/26 09:57:54;;;;;;;11.13;6.63;;;9.00;1.00;;;;;;5055915;28;20220;-69
2024/01/26 10:00:20;;;;;;;10.83;8.03;;;9.00;1.00;;;;;;5073741;28;20372;-71
2024/01/26 10:02:46;;;;;;;13.60;8.37;;;9.10;1.00;;;;;;5073498;28;20851;-71
2024/01/26 10:05:16;;;;;;;13.10;7.70;;;9.10;1.00;;;;;;5038440;28;20470;-70
2024/01/26 10:07:45;;;;;;;12.73;8.10;;;9.20;1.00;;;;;;5023140;28;20391;-71
2024/01/26 10:10:12;;;;;;;8.83;6.73;;;9.20;1.00;;;;;;5073459;28;20389;-69
2024/01/26 10:12:41;;;;;;;8.83;7.00;;;9.30;1.00;;;;;;5039121;28;20464;-70
2024/01/26 10:15:11;;;;;;;10.77;7.33;;;9.30;1.00;;;;;;5055176;28;20402;-69
2024/01/26 10:17:37;;;;;;;8.20;5.57;;;9.40;1.00;;;;;;5055986;28;20455;-70
2024/01/26 10:20:13;;;;;;;7.53;5.80;;;9.50;1.00;;;;;;5073341;28;20366;-69
2024/01/26 10:22:39;;;;;;;7.93;6.23;;;9.50;1.00;;;;;;5073187;28;20866;-68
2024/01/26 10:25:08;;;;;;;9.97;6.10;;;9.50;1.00;;;;;;5072905;28;20425;-69
2024/01/26 10:27:35;;;;;;;7.30;5.27;;;9.60;1.00;;;;;;5069157;28;20389;-69
2024/01/26 10:30:03;;;;;;;8.70;6.10;;;9.60;1.00;;;;;;5093227;28;20844;-69
2024/01/26 10:32:32;;;;;;;9.70;6.20;;;9.60;1.00;;;;;;5074784;28;20408;-69
2024/01/26 10:35:00;;;;;;;7.60;6.10;;;9.70;1.00;;;;;;5092966;28;20442;-69
2024/01/26 10:37:28;;;;;;;6.57;5.80;;;9.70;1.00;;;;;;5090268;28;20944;-71
2024/01/26 10:40:00;;;;;;;7.53;5.87;;;9.70;1.00;;;;;;5075716;28;20431;-68
2024/01/26 10:42:32;;;;;;;8.30;6.50;;;9.70;1.00;;;;;;5075255;28;20529;-69
2024/01/26 10:45:02;;;;;;;9.60;6.70;;;9.70;1.00;;;;;;5075114;28;20986;-69
2024/01/26 10:47:30;;;;;;;6.93;6.20;;;9.80;1.00;;;;;;5074321;28;20736;-69
2024/01/26 10:49:59;;;;;;;9.70;6.33;;;9.80;1.00;;;;;;5076060;28;20374;-69
2024/01/26 10:52:25;;;;;;;7.10;6.30;;;9.80;1.00;;;;;;5079441;28;20432;-69
2024/01/26 10:54:52;;;;;;;7.23;5.60;;;9.80;1.00;;;;;;5096138;28;20440;-70
2024/01/26 10:57:22;;;;;;;7.83;6.27;;;9.80;1.00;;;;;;5079015;28;20537;-69
2024/01/26 10:59:48;;;;;;;9.67;6.90;;;9.90;1.00;;;;;;5079705;28;20796;-69
2024/01/26 11:02:18;;;;;;;6.70;5.90;;;9.90;1.00;;;;;;5078970;28;20407;-71
2024/01/26 11:04:44;;;;;;;13.17;6.80;;;9.90;1.00;;;;;;5095936;28;20430;-67
2024/01/26 11:07:10;;;;;;;7.50;6.50;;;9.90;1.00;;;;;;5096810;28;20402;-72
2024/01/26 11:09:41;;;;;;;6.90;6.20;;;9.90;1.00;;;;;;5097104;28;20395;-67
2024/01/26 11:12:29;;;;;;;8.80;6.33;;;9.90;1.00;;;;;;5097044;28;20363;-67
2024/01/26 11:15:11;;;;;;;9.60;5.80;;;9.90;1.00;;;;;;5095831;28;20484;-67
2024/01/26 11:17:51;;;;;;;6.37;5.17;;;10.00;1.00;;;;;;5096834;28;20374;-66
2024/01/26 11:20:34;;;;;;;3.43;3.13;;;10.00;1.00;;;;;;5096831;28;20479;-68
2024/01/26 11:23:11;;;;;;;5.13;3.70;;;10.00;1.00;;;;;;5095721;28;20376;-67
2024/01/26 11:25:57;;;;;;;3.10;2.70;;;10.10;1.00;;;;;;5096723;28;20440;-67
2024/01/26 11:28:28;;;;;;;10.77;2.60;;;10.00;1.00;;;;;;5078632;28;20388;-67
2024/01/26 11:30:57;;;;;;;3.43;2.63;;;10.00;1.00;;;;;;5096557;28;20452;-68
2024/01/26 11:33:23;;;;;;;6.20;2.57;;;10.00;1.00;;;;;;5095588;28;20392;-67
2024/01/26 11:35:49;;;;;;;7.63;2.07;;;9.80;1.00;;;;;;5096469;28;20952;-67
2024/01/26 11:38:18;;;;;;;4.90;2.20;;;9.70;1.00;;;;;;5096536;28;20169;-67
2024/01/26 11:40:45;;;;;;;7.80;2.10;;;9.70;1.00;;;;;;5096569;28;20430;-68
2024/01/26 11:43:10;;;;;;;9.70;2.53;;;9.60;1.00;;;;;;5077452;28;20450;-67
2024/01/26 11:45:45;;;;;;;8.20;3.47;;;9.60;1.00;;;;;;5096279;28;20832;-66
2024/01/26 11:48:13;;;;;;;7.90;2.60;;;9.50;1.00;;;;;;5078101;28;20539;-66
2024/01/26 11:50:43;;;;;;;12.10;3.47;;;9.40;1.00;;;;;;5096304;28;20426;-66
2024/01/26 11:53:10;;;;;;;15.27;3.10;;;9.40;1.00;;;;;;5095245;28;21172;-67
2024/01/26 11:55:39;;;;;;;7.03;3.60;;;9.20;1.00;;;;;;5096001;28;20794;-69
2024/01/26 11:58:06;;;;;;;7.47;2.90;;;9.20;1.00;;;;;;5096060;28;20409;-64
2024/01/26 12:00:32;;;;;;;6.43;4.27;;;9.20;1.00;;;;;;5095976;28;20399;-67
2024/01/26 12:02:58;;;;;;;10.73;4.10;;;9.10;1.00;;;;;;5093884;28;20467;-69
2024/01/26 12:05:24;;;;;;;11.77;3.60;;;9.00;1.00;;;;;;5095578;28;20512;-67
2024/01/26 12:07:50;;;;;;;19.93;4.57;;;9.00;1.00;;;;;;5077769;28;20205;-75
2024/01/26 12:10:17;;;;;;;27.03;5.00;;;9.00;1.00;;;;;;5077655;28;20416;-71
2024/01/26 12:12:44;;;;;;;17.37;3.90;;;8.90;1.00;;;;;;5095727;28;20374;-64
2024/01/26 12:15:10;;;;;;;17.97;6.13;;;8.80;1.00;;;;;;5094776;28;20394;-65
2024/01/26 12:17:36;;;;;;;19.60;5.17;;;8.70;1.00;;;;;;5095624;28;20382;-62
2024/01/26 12:20:09;;;;;;;15.97;4.30;;;8.70;1.00;;;;;;5077542;28;20389;-67
2024/01/26 12:22:36;;;;;;;21.20;4.90;;;8.60;1.00;;;;;;5095524;28;20409;-71
2024/01/26 12:25:06;;;;;;;8.43;4.33;;;8.50;1.00;;;;;;5094453;28;20447;-64
2024/01/26 12:27:35;;;;;;;15.57;4.40;;;8.40;1.00;;;;;;5095391;28;20406;-73
2024/01/26 12:30:01;;;;;;;15.90;4.63;;;8.40;1.00;;;;;;5077587;28;20413;-78
2024/01/26 12:32:27;;;;;;;13.53;4.00;;;8.40;1.00;;;;;;5095406;28;20456;-76
2024/01/26 12:34:53;;;;;;;13.07;4.07;;;8.30;1.00;;;;;;5094412;28;20459;-78
2024/01/26 12:37:20;;;;;;;13.50;4.87;;;8.30;1.00;;;;;;5070218;28;20474;-82
2024/01/26 12:39:47;;;;;;;14.50;4.47;;;8.30;1.00;;;;;;5090004;28;20667;-75
2024/01/26 12:42:13;;;;;;;21.83;4.53;;;8.20;1.00;;;;;;5095196;28;20432;-69
2024/01/26 12:44:39;;;;;;;22.70;5.70;;;8.20;1.00;;;;;;5094099;28;20479;-70
2024/01/26 12:47:07;;;;;;;19.70;6.00;;;8.20;1.00;;;;;;5094844;28;20495;-80